Time;durP1;ratioP1;P1;durP2;ratioP2;P2;SDS_P1;SDS_P2;PMS_P1;PMS_P2;Temp;Humidity;BMP_temperature;BMP_pressure;BME280_temperature;BME280_humidity;BME280_pressure;Samples;Min_cycle;Max_cycle;Signal;HPM_P1;HPM_P2
2023/05/21 00:00:27;;;;;;;17.05;11.95;;;;;;;12.57;47.54;95479.84;4938971;29;20411;-80
2023/05/21 00:02:52;;;;;;;17.58;13.07;;;;;;;12.49;47.62;95478.13;4941406;29;20031;-80
2023/05/21 00:05:20;;;;;;;16.30;10.07;;;;;;;12.84;46.88;95470.16;4940811;29;20035;-80
2023/05/21 00:07:45;;;;;;;18.53;11.87;;;;;;;12.71;47.17;95476.22;4941563;29;20027;-80
2023/05/21 00:10:11;;;;;;;13.68;9.75;;;;;;;12.90;46.89;95469.38;4944289;29;20340;-80
2023/05/21 00:12:36;;;;;;;14.85;9.80;;;;;;;12.72;47.25;95474.38;4929547;29;20075;-80
2023/05/21 00:15:02;;;;;;;16.30;10.93;;;;;;;12.74;47.43;95465.16;4944630;29;20043;-80
2023/05/21 00:17:27;;;;;;;16.70;9.95;;;;;;;12.80;47.00;95460.88;4940267;29;20031;-79
2023/05/21 00:19:53;;;;;;;15.80;10.90;;;;;;;12.63;47.05;95461.19;4940785;29;20032;-80
2023/05/21 00:22:19;;;;;;;17.25;10.48;;;;;;;12.55;47.75;95461.34;4936666;29;20039;-79
2023/05/21 00:24:44;;;;;;;16.05;10.48;;;;;;;12.76;47.54;95446.25;4942061;29;20031;-79
2023/05/21 00:27:11;;;;;;;15.43;11.20;;;;;;;12.86;46.94;95449.41;4940873;28;20040;-80
2023/05/21 00:29:36;;;;;;;17.63;9.95;;;;;;;12.77;46.81;95447.91;4918429;29;20087;-80
2023/05/21 00:32:02;;;;;;;13.95;10.05;;;;;;;12.73;47.25;95454.66;4944940;29;20478;-80
2023/05/21 00:34:28;;;;;;;16.35;11.05;;;;;;;12.78;47.54;95444.22;4942546;29;20059;-80
2023/05/21 00:36:54;;;;;;;15.88;10.93;;;;;;;12.72;47.40;95442.34;4942340;29;20044;-80
2023/05/21 00:39:20;;;;;;;13.77;9.35;;;;;;;12.66;47.46;95449.28;4943926;29;20047;-79
2023/05/21 00:41:47;;;;;;;15.48;10.23;;;;;;;12.76;47.38;95435.56;4942222;29;20429;-80
2023/05/21 00:44:12;;;;;;;16.07;9.97;;;;;;;12.71;47.73;95438.03;4940733;29;20031;-79
2023/05/21 00:46:38;;;;;;;17.60;9.52;;;;;;;12.72;47.37;95435.13;4943117;29;20682;-80
2023/05/21 00:49:03;;;;;;;16.02;9.45;;;;;;;12.84;47.23;95437.25;4925553;29;20107;-80
2023/05/21 00:51:29;;;;;;;15.07;9.73;;;;;;;12.92;47.18;95435.25;4944411;29;20046;-80
2023/05/21 00:53:54;;;;;;;13.52;9.70;;;;;;;13.00;46.90;95436.16;4945481;29;20046;-79
2023/05/21 00:56:21;;;;;;;12.88;9.43;;;;;;;12.92;47.21;95434.44;4943352;29;20027;-80
2023/05/21 00:58:47;;;;;;;17.02;10.73;;;;;;;12.95;47.26;95433.22;4923588;29;20063;-80
2023/05/21 01:01:12;;;;;;;15.73;9.90;;;;;;;12.91;47.42;95427.44;4939851;29;20016;-80
2023/05/21 01:03:38;;;;;;;15.68;9.93;;;;;;;13.00;47.05;95430.81;4908207;29;20399;-80
2023/05/21 01:06:04;;;;;;;13.85;10.23;;;;;;;12.93;46.83;95434.22;4941968;28;20047;-80
2023/05/21 01:08:29;;;;;;;15.18;9.80;;;;;;;12.93;47.26;95420.88;4926549;29;20088;-80
2023/05/21 01:10:54;;;;;;;14.65;10.05;;;;;;;13.01;46.91;95429.78;4923757;29;20646;-80
2023/05/21 01:13:21;;;;;;;16.15;9.90;;;;;;;13.01;47.17;95432.44;4943331;29;20031;-80
2023/05/21 01:15:46;;;;;;;17.77;9.75;;;;;;;13.18;46.40;95438.28;4924509;29;20039;-81
2023/05/21 01:18:13;;;;;;;13.23;9.43;;;;;;;13.26;46.49;95426.59;4946643;28;20516;-80
2023/05/21 01:20:38;;;;;;;17.10;9.48;;;;;;;13.16;46.59;95425.13;4946553;29;20031;-80
2023/05/21 01:23:04;;;;;;;13.82;9.07;;;;;;;13.22;46.56;95426.16;4938549;29;20106;-80
2023/05/21 01:25:30;;;;;;;14.65;9.07;;;;;;;13.22;46.69;95428.84;4927446;29;20042;-79
2023/05/21 01:27:55;;;;;;;14.23;9.63;;;;;;;13.21;46.23;95429.03;4945303;29;20031;-80
2023/05/21 01:30:21;;;;;;;16.90;9.85;;;;;;;12.95;46.65;95422.53;4941165;29;20041;-80
2023/05/21 01:33:14;;;;;;;14.65;10.20;;;;;;;12.74;47.50;95424.25;4924303;29;20545;-79
2023/05/21 01:35:48;;;;;;;16.20;10.65;;;;;;;12.67;47.70;95427.72;4944602;29;20055;-80
2023/05/21 01:38:30;;;;;;;12.75;9.93;;;;;;;12.77;47.71;95422.03;4945043;28;20039;-80
2023/05/21 01:41:03;;;;;;;14.35;9.88;;;;;;;13.12;46.32;95426.53;4922601;29;20384;-80
2023/05/21 01:43:30;;;;;;;15.32;10.30;;;;;;;12.89;46.99;95418.81;4927772;29;20039;-80
2023/05/21 01:45:56;;;;;;;14.47;9.83;;;;;;;13.25;46.50;95422.25;4936791;29;20063;-80
2023/05/21 01:48:26;;;;;;;13.27;9.85;;;;;;;13.17;46.66;95421.44;4926114;29;20267;-80
2023/05/21 01:50:52;;;;;;;13.05;9.82;;;;;;;13.07;46.64;95420.97;4938421;29;20039;-80
2023/05/21 01:53:18;;;;;;;16.88;10.60;;;;;;;13.18;46.60;95423.06;4925142;29;20023;-80
2023/05/21 01:55:43;;;;;;;15.23;10.32;;;;;;;13.06;46.85;95422.00;4943685;28;20042;-80
2023/05/21 01:58:08;;;;;;;14.45;10.35;;;;;;;12.73;47.41;95423.44;4947280;29;20046;-80
2023/05/21 02:00:34;;;;;;;14.30;9.75;;;;;;;13.16;46.47;95419.78;4943020;29;20043;-80
2023/05/21 02:02:59;;;;;;;14.75;10.43;;;;;;;13.15;46.65;95417.28;4940430;29;20434;-80
2023/05/21 02:05:25;;;;;;;16.90;10.07;;;;;;;13.25;46.55;95417.75;4943257;29;20453;-80
2023/05/21 02:07:50;;;;;;;17.58;10.02;;;;;;;13.33;46.34;95426.63;4921178;29;20141;-80
2023/05/21 02:10:16;;;;;;;14.95;10.50;;;;;;;13.13;46.63;95422.84;4938556;29;20047;-80
2023/05/21 02:12:42;;;;;;;14.38;9.75;;;;;;;13.21;46.74;95418.34;4937375;29;20176;-80
2023/05/21 02:15:07;;;;;;;14.75;10.27;;;;;;;13.10;45.75;95425.94;4942134;29;20054;-80
2023/05/21 02:17:33;;;;;;;13.68;9.80;;;;;;;13.00;44.93;95426.28;4922779;29;20031;-80
2023/05/21 02:20:09;;;;;;;13.93;10.32;;;;;;;12.84;45.54;95423.91;4944478;29;20486;-80
2023/05/21 02:22:35;;;;;;;15.27;10.50;;;;;;;12.56;46.03;95416.75;4941528;29;20047;-79
2023/05/21 02:25:01;;;;;;;13.30;9.52;;;;;;;12.66;47.39;95414.56;4920634;29;20032;-80
2023/05/21 02:27:27;;;;;;;13.07;9.88;;;;;;;12.81;47.12;95406.41;4937625;29;20019;-80
2023/05/21 02:29:53;;;;;;;15.13;10.15;;;;;;;12.88;45.60;95417.13;4934517;29;20034;-80
2023/05/21 02:32:18;;;;;;;15.43;9.90;;;;;;;12.89;46.34;95406.25;4936681;29;20040;-80
2023/05/21 02:34:46;;;;;;;18.05;10.02;;;;;;;12.87;45.60;95407.47;4940195;29;20498;-80
2023/05/21 02:37:11;;;;;;;14.45;9.57;;;;;;;13.03;45.79;95398.34;4934248;29;20039;-80
2023/05/21 02:39:36;;;;;;;16.85;10.55;;;;;;;13.03;46.72;95404.50;4935875;29;20040;-80
2023/05/21 02:42:02;;;;;;;16.70;9.88;;;;;;;13.15;46.72;95407.44;4940520;29;20039;-79
2023/05/21 02:44:27;;;;;;;14.25;9.80;;;;;;;13.18;45.95;95393.69;4942317;29;20174;-80
2023/05/21 02:46:53;;;;;;;14.15;9.15;;;;;;;13.27;45.62;95401.53;4941976;29;20479;-80
2023/05/21 02:49:18;;;;;;;12.85;10.02;;;;;;;12.95;46.63;95401.97;4943409;29;20023;-80
2023/05/21 02:51:43;;;;;;;13.90;9.52;;;;;;;13.20;45.86;95398.81;4938578;29;20236;-80
2023/05/21 02:54:09;;;;;;;13.18;9.50;;;;;;;13.17;46.18;95400.06;4944522;29;20050;-80
2023/05/21 02:56:34;;;;;;;13.10;9.77;;;;;;;12.97;46.76;95397.25;4942445;29;20028;-80
2023/05/21 02:59:00;;;;;;;12.95;9.93;;;;;;;13.05;46.54;95396.28;4944165;29;20043;-80
2023/05/21 03:01:25;;;;;;;14.57;10.02;;;;;;;13.08;45.58;95403.09;4941300;29;20046;-79
2023/05/21 03:03:51;;;;;;;16.70;10.52;;;;;;;13.08;45.73;95403.09;4938794;29;20463;-80
2023/05/21 03:06:16;;;;;;;12.95;9.82;;;;;;;12.92;43.87;95411.22;4937646;29;20118;-80
2023/05/21 03:08:41;;;;;;;16.75;10.23;;;;;;;12.67;47.44;95403.69;4941460;29;20045;-80
2023/05/21 03:11:07;;;;;;;16.65;10.38;;;;;;;12.85;47.07;95405.00;4942647;29;20039;-80
2023/05/21 03:13:32;;;;;;;17.13;9.85;;;;;;;12.72;45.15;95402.28;4949969;29;20034;-80
2023/05/21 03:15:58;;;;;;;14.13;10.50;;;;;;;12.62;47.92;95400.75;4941237;29;20383;-80
2023/05/21 03:18:23;;;;;;;14.75;9.93;;;;;;;12.86;46.66;95401.31;4938578;29;20043;-80
2023/05/21 03:20:49;;;;;;;14.20;9.90;;;;;;;12.74;46.71;95402.88;4942789;29;20178;-80
2023/05/21 03:23:14;;;;;;;15.10;10.38;;;;;;;12.62;46.77;95400.75;4937618;29;20503;-80
2023/05/21 03:25:40;;;;;;;15.55;10.80;;;;;;;12.51;47.34;95393.31;4939763;29;20035;-79
2023/05/21 03:28:05;;;;;;;15.40;10.48;;;;;;;12.56;47.79;95398.06;4939700;29;20028;-80
2023/05/21 03:30:31;;;;;;;15.07;9.50;;;;;;;12.69;46.64;95391.97;4940082;29;20032;-80
2023/05/21 03:32:56;;;;;;;15.05;9.68;;;;;;;12.58;45.17;95396.03;4939676;29;20127;-80
2023/05/21 03:35:22;;;;;;;13.45;9.70;;;;;;;12.76;45.15;95396.34;4939265;29;20111;-80
2023/05/21 03:37:47;;;;;;;13.45;9.63;;;;;;;12.70;45.63;95388.28;4939755;29;20111;-80
2023/05/21 03:40:13;;;;;;;13.43;9.50;;;;;;;12.84;45.12;95390.00;4939161;29;20368;-80
2023/05/21 03:42:38;;;;;;;13.65;9.70;;;;;;;12.83;46.05;95390.19;4942744;29;20050;-79
2023/05/21 03:45:05;;;;;;;15.43;9.77;;;;;;;12.83;46.61;95390.19;4936508;29;20326;-80
2023/05/21 03:47:30;;;;;;;12.68;9.27;;;;;;;12.87;46.83;95392.28;4945709;29;20048;-80
2023/05/21 03:49:56;;;;;;;13.10;9.93;;;;;;;12.76;45.84;95392.84;4942337;29;20032;-80
2023/05/21 03:52:21;;;;;;;13.30;9.80;;;;;;;12.87;46.65;95386.94;4938768;29;20040;-80
2023/05/21 03:54:46;;;;;;;14.75;9.30;;;;;;;13.08;46.40;95385.19;4924440;29;20044;-80
2023/05/21 03:57:12;;;;;;;14.75;10.05;;;;;;;12.97;46.32;95391.91;4937492;29;20039;-80
2023/05/21 03:59:37;;;;;;;17.00;10.25;;;;;;;13.01;45.94;95392.38;4935374;29;20048;-80
2023/05/21 04:02:03;;;;;;;14.57;9.98;;;;;;;12.74;47.52;95385.03;4918282;29;20036;-80
2023/05/21 04:04:28;;;;;;;14.88;10.52;;;;;;;12.75;47.15;95385.84;4924256;29;20032;-79
2023/05/21 04:06:54;;;;;;;12.68;9.57;;;;;;;12.98;46.57;95388.22;4936283;29;20423;-80
2023/05/21 04:09:20;;;;;;;14.25;9.85;;;;;;;13.09;47.17;95386.03;4939949;29;20201;-80
2023/05/21 04:11:46;;;;;;;12.68;9.60;;;;;;;13.24;45.95;95388.53;4937674;29;20027;-80
2023/05/21 04:14:11;;;;;;;14.05;9.65;;;;;;;13.21;45.14;95395.13;4943725;29;20050;-80
2023/05/21 04:16:37;;;;;;;12.60;8.95;;;;;;;13.24;46.40;95393.91;4939342;29;20410;-80
2023/05/21 04:19:03;;;;;;;12.77;9.15;;;;;;;13.27;45.63;95390.81;4937412;29;20047;-80
2023/05/21 04:21:28;;;;;;;15.40;9.65;;;;;;;13.31;46.09;95389.41;4938102;29;20039;-80
2023/05/21 04:23:56;;;;;;;14.85;10.20;;;;;;;13.11;46.87;95386.66;4942881;29;20044;-79
2023/05/21 04:26:22;;;;;;;15.68;9.88;;;;;;;13.33;46.50;95387.34;4939477;29;20046;-80
2023/05/21 04:28:48;;;;;;;13.60;9.80;;;;;;;13.24;46.30;95394.72;4921208;29;20071;-80
2023/05/21 04:31:13;;;;;;;15.05;10.45;;;;;;;12.92;46.73;95391.69;4941608;29;20043;-80
2023/05/21 04:33:41;;;;;;;12.98;9.05;;;;;;;13.07;46.33;95394.25;4919023;29;20034;-79
2023/05/21 04:36:08;;;;;;;12.00;9.00;;;;;;;13.12;46.09;95399.81;4939034;29;20035;-80
2023/05/21 04:38:35;;;;;;;13.23;9.60;;;;;;;13.08;46.41;95398.56;4936299;29;20063;-80
2023/05/21 04:41:03;;;;;;;13.83;9.33;;;;;;;13.29;46.50;95396.78;4934374;29;20028;-80
2023/05/21 04:43:28;;;;;;;15.33;10.00;;;;;;;13.08;47.07;95393.22;4925622;29;20091;-80
2023/05/21 04:45:54;;;;;;;13.27;9.98;;;;;;;13.46;45.85;95399.13;4918998;29;20031;-79
2023/05/21 04:48:21;;;;;;;16.73;9.68;;;;;;;13.43;46.34;95395.81;4936919;29;20031;-80
2023/05/21 04:50:47;;;;;;;12.63;9.63;;;;;;;13.42;46.64;95399.50;4924519;29;20458;-80
2023/05/21 04:53:12;;;;;;;15.50;9.32;;;;;;;13.56;46.52;95400.38;4939719;29;20050;-80
2023/05/21 04:55:38;;;;;;;12.70;9.02;;;;;;;13.63;46.20;95408.41;4938791;29;20055;-80
2023/05/21 04:58:05;;;;;;;12.98;9.10;;;;;;;13.87;45.32;95398.13;4940553;29;20035;-79
2023/05/21 05:00:36;;;;;;;12.07;9.02;;;;;;;13.79;45.50;95401.00;4925074;29;20104;-79
2023/05/21 05:03:01;;;;;;;13.38;9.02;;;;;;;14.04;45.02;95397.78;4939492;28;20040;-80
2023/05/21 05:05:27;;;;;;;13.13;9.40;;;;;;;13.96;44.79;95406.81;4922809;29;20055;-80
2023/05/21 05:07:52;;;;;;;14.45;10.10;;;;;;;13.84;45.49;95403.91;4932087;29;20047;-80
2023/05/21 05:10:18;;;;;;;14.13;9.48;;;;;;;13.90;44.54;95411.16;4935816;29;20054;-80
2023/05/21 05:12:43;;;;;;;15.20;9.88;;;;;;;13.82;45.38;95412.16;4941078;29;20024;-79
2023/05/21 05:15:09;;;;;;;16.05;10.02;;;;;;;13.87;45.68;95406.16;4933446;29;20040;-80
2023/05/21 05:17:34;;;;;;;12.32;9.32;;;;;;;14.10;45.23;95404.97;4923958;29;20118;-79
2023/05/21 05:20:00;;;;;;;13.60;9.55;;;;;;;13.97;44.64;95394.28;4938116;29;20019;-79
2023/05/21 05:22:25;;;;;;;14.52;9.30;;;;;;;14.12;44.67;95394.06;4935804;28;20056;-80
2023/05/21 05:24:51;;;;;;;12.27;9.13;;;;;;;14.17;44.30;95392.41;4938412;29;20035;-80
2023/05/21 05:27:17;;;;;;;13.65;9.45;;;;;;;14.28;44.71;95393.66;4937828;29;20036;-80
2023/05/21 05:29:43;;;;;;;13.18;8.82;;;;;;;14.53;44.66;95395.69;4936569;28;20040;-79
2023/05/21 05:32:08;;;;;;;12.80;9.10;;;;;;;14.67;44.26;95393.81;4940514;28;20035;-80
2023/05/21 05:34:34;;;;;;;14.35;9.60;;;;;;;;;;4940644;29;20105;-80
2023/05/21 05:37:01;;;;;;;12.87;9.20;;;;;;;14.85;43.65;95403.06;4939748;29;20133;-80
2023/05/21 05:39:26;;;;;;;13.35;9.20;;;;;;;14.75;42.99;95398.13;4939536;29;20043;-80
2023/05/21 05:41:52;;;;;;;10.95;8.70;;;;;;;14.67;43.86;95399.16;4940154;28;20043;-80
2023/05/21 05:44:17;;;;;;;16.27;9.85;;;;;;;14.91;43.40;95401.38;4938704;29;20093;-80
2023/05/21 05:46:43;;;;;;;12.27;9.30;;;;;;;15.00;41.99;95408.19;4937043;29;20054;-80
2023/05/21 05:49:08;;;;;;;12.82;9.40;;;;;;;15.17;43.44;95397.81;4922806;29;20031;-80
2023/05/21 05:51:33;;;;;;;13.70;9.20;;;;;;;15.26;42.47;95401.06;4938968;29;20275;-79
2023/05/21 05:53:59;;;;;;;12.07;8.85;;;;;;;15.28;42.51;95400.84;4941148;29;20035;-79
2023/05/21 05:56:25;;;;;;;11.70;9.32;;;;;;;15.34;43.04;95400.81;4935614;29;20039;-80
2023/05/21 05:58:51;;;;;;;13.82;9.10;;;;;;;15.57;42.02;95401.34;4935912;29;20040;-80
2023/05/21 06:01:16;;;;;;;11.70;8.65;;;;;;;15.73;41.92;95400.84;4936288;29;20030;-80
2023/05/21 06:03:41;;;;;;;15.50;8.85;;;;;;;15.93;40.97;95396.38;4940344;29;20043;-80
2023/05/21 06:06:07;;;;;;;12.70;8.80;;;;;;;16.06;41.56;95396.28;4926040;29;20047;-80
2023/05/21 06:08:33;;;;;;;11.80;8.63;;;;;;;16.10;41.02;95399.34;4939404;29;20094;-80
2023/05/21 06:10:58;;;;;;;12.40;8.88;;;;;;;16.26;40.38;95396.09;4940926;28;20165;-81
2023/05/21 06:13:24;;;;;;;10.85;8.30;;;;;;;16.10;40.55;95396.66;4941006;29;20028;-81
2023/05/21 06:15:50;;;;;;;14.02;8.95;;;;;;;16.29;40.37;95394.03;4927565;29;20116;-81
2023/05/21 06:18:15;;;;;;;12.32;9.18;;;;;;;16.22;39.71;95394.09;4952708;28;20043;-81
2023/05/21 06:20:41;;;;;;;9.90;8.30;;;;;;;16.39;40.61;95397.88;4961771;29;20110;-81
2023/05/21 06:23:07;;;;;;;13.15;8.55;;;;;;;16.75;40.55;95397.31;4957274;29;20043;-81
2023/05/21 06:25:33;;;;;;;12.05;8.40;;;;;;;17.08;39.32;95398.00;4951467;29;20043;-81
2023/05/21 06:27:58;;;;;;;10.02;8.00;;;;;;;17.31;39.80;95393.84;4942159;29;20036;-80
2023/05/21 06:30:24;;;;;;;11.18;8.35;;;;;;;17.51;39.14;95398.97;4940728;29;20023;-80
2023/05/21 06:32:49;;;;;;;13.13;8.63;;;;;;;17.53;40.32;95396.84;4941728;29;20042;-80
2023/05/21 06:35:15;;;;;;;11.40;8.02;;;;;;;17.88;39.32;95406.94;4958248;29;20046;-80
2023/05/21 06:37:41;;;;;;;17.45;9.20;;;;;;;17.88;38.61;95400.75;4957428;29;20028;-80
2023/05/21 06:40:07;;;;;;;11.63;8.32;;;;;;;18.28;38.75;95396.59;4953809;29;20091;-80
2023/05/21 06:42:33;;;;;;;11.90;8.38;;;;;;;18.24;38.13;95392.72;4960980;29;20116;-80
2023/05/21 06:44:58;;;;;;;12.65;8.50;;;;;;;18.50;37.20;95391.47;4943687;29;20487;-80
2023/05/21 06:47:23;;;;;;;11.23;8.20;;;;;;;19.02;37.81;95402.56;4941249;29;20050;-80
2023/05/21 06:49:49;;;;;;;9.48;7.90;;;;;;;19.17;37.07;95399.38;4945337;29;20032;-81
2023/05/21 06:52:14;;;;;;;10.73;8.20;;;;;;;19.39;34.91;95398.75;4945875;29;20475;-81
2023/05/21 06:54:41;;;;;;;10.80;7.78;;;;;;;19.61;37.08;95404.28;4938391;29;20035;-82
2023/05/21 06:57:06;;;;;;;9.68;7.78;;;;;;;19.52;36.21;95400.34;4945060;29;20031;-82
2023/05/21 06:59:31;;;;;;;10.18;7.63;;;;;;;19.95;35.13;95403.53;4946041;28;20506;-81
2023/05/21 07:01:57;;;;;;;11.95;7.63;;;;;;;20.00;35.64;95402.84;4940158;29;20043;-82
2023/05/21 07:04:23;;;;;;;9.70;7.50;;;;;;;20.09;35.16;95401.38;4938700;29;20050;-82
2023/05/21 07:06:48;;;;;;;9.40;7.32;;;;;;;20.40;35.02;95406.47;4940531;29;20091;-81
2023/05/21 07:09:14;;;;;;;9.38;7.53;;;;;;;20.49;35.07;95399.56;4936349;29;20094;-82
2023/05/21 07:11:39;;;;;;;9.65;7.45;;;;;;;20.60;33.52;95403.25;4944386;29;20047;-81
2023/05/21 07:14:05;;;;;;;8.82;7.20;;;;;;;20.74;34.69;95403.75;4940692;29;20051;-81
2023/05/21 07:16:30;;;;;;;8.98;7.25;;;;;;;20.76;34.71;95403.50;4935295;29;20411;-81
2023/05/21 07:18:56;;;;;;;11.05;7.50;;;;;;;20.94;34.23;95400.50;4934402;29;20032;-80
2023/05/21 07:21:21;;;;;;;10.13;7.80;;;;;;;20.51;33.63;95396.63;4934108;29;20036;-81
2023/05/21 07:23:46;;;;;;;10.10;7.03;;;;;;;20.69;33.32;95396.38;4938103;29;20522;-81
2023/05/21 07:26:12;;;;;;;9.30;7.20;;;;;;;21.00;33.36;95395.97;4941885;29;20143;-80
2023/05/21 07:28:37;;;;;;;9.90;7.13;;;;;;;21.12;34.09;95396.66;4934574;29;20031;-80
2023/05/21 07:31:03;;;;;;;10.88;7.07;;;;;;;21.31;33.80;95404.50;4919238;29;20430;-80
2023/05/21 07:33:28;;;;;;;11.25;7.57;;;;;;;21.41;33.72;95400.28;4939693;29;20034;-80
2023/05/21 07:35:53;;;;;;;11.77;7.13;;;;;;;21.53;33.81;95406.38;4943016;29;20056;-80
2023/05/21 07:38:19;;;;;;;11.55;7.53;;;;;;;21.46;31.92;95406.59;4945268;28;20689;-81
2023/05/21 07:40:44;;;;;;;9.40;6.60;;;;;;;21.92;33.13;95410.06;4940971;29;20040;-80
2023/05/21 07:43:11;;;;;;;9.15;6.68;;;;;;;22.09;32.10;95399.91;4945821;29;20529;-80
2023/05/21 07:45:36;;;;;;;10.77;6.40;;;;;;;22.38;32.83;95404.19;4922972;29;20222;-79
2023/05/21 07:48:01;;;;;;;8.20;6.65;;;;;;;22.61;32.20;95400.31;4937404;29;20035;-80
2023/05/21 07:50:27;;;;;;;9.25;6.82;;;;;;;22.80;31.94;95397.19;4937139;29;20524;-80
2023/05/21 07:52:52;;;;;;;9.48;7.00;;;;;;;22.89;31.89;95397.50;4941886;29;20035;-80
2023/05/21 07:55:18;;;;;;;8.48;6.45;;;;;;;23.11;30.81;95407.41;4937695;28;20035;-80
2023/05/21 07:57:44;;;;;;;8.32;6.47;;;;;;;23.37;30.74;95408.34;4935524;29;20062;-80
2023/05/21 08:00:12;;;;;;;8.55;6.22;;;;;;;23.53;30.10;95402.97;4941685;29;20031;-79
2023/05/21 08:02:38;;;;;;;8.02;6.25;;;;;;;23.49;29.86;95404.59;4937161;29;20191;-79
2023/05/21 08:05:04;;;;;;;7.63;5.82;;;;;;;23.71;30.01;95403.53;4925272;29;20040;-80
2023/05/21 08:07:30;;;;;;;8.05;6.18;;;;;;;23.93;29.44;95404.16;4932239;29;20062;-80
2023/05/21 08:09:56;;;;;;;7.88;6.35;;;;;;;24.12;28.77;95395.47;4934705;29;20050;-79
2023/05/21 08:12:21;;;;;;;9.45;6.70;;;;;;;24.28;28.74;95401.75;4945178;29;20102;-80
2023/05/21 08:14:46;;;;;;;8.90;6.45;;;;;;;24.50;28.92;95399.88;4942259;29;20859;-80
2023/05/21 08:17:12;;;;;;;9.13;5.88;;;;;;;24.58;28.92;95399.31;4943280;29;20093;-80
2023/05/21 08:19:37;;;;;;;8.35;5.72;;;;;;;24.73;28.57;95403.06;4946113;29;20066;-80
2023/05/21 08:22:05;;;;;;;8.93;6.32;;;;;;;24.62;28.43;95399.56;4945277;29;20260;-80
2023/05/21 08:24:31;;;;;;;10.05;6.10;;;;;;;24.74;28.57;95405.53;4940943;29;20619;-80
2023/05/21 08:26:56;;;;;;;8.93;6.10;;;;;;;24.83;28.34;95403.88;4938284;29;20040;-80
2023/05/21 08:29:21;;;;;;;9.02;5.75;;;;;;;24.89;28.29;95404.69;4947886;29;20027;-80
2023/05/21 08:31:47;;;;;;;10.13;6.32;;;;;;;25.02;27.87;95399.78;4940587;29;20045;-79
2023/05/21 08:34:12;;;;;;;13.52;6.18;;;;;;;25.09;27.98;95394.88;4942138;28;20613;-79
2023/05/21 08:36:38;;;;;;;7.05;5.80;;;;;;;25.11;27.89;95400.03;4941094;29;20023;-80
2023/05/21 08:39:03;;;;;;;7.57;5.82;;;;;;;25.06;27.57;95401.69;4933881;29;20035;-79
2023/05/21 08:41:29;;;;;;;7.95;6.28;;;;;;;25.09;28.03;95400.31;4936527;29;20050;-80
2023/05/21 08:43:56;;;;;;;9.38;6.00;;;;;;;25.01;27.07;95403.59;4916835;29;20028;-79
2023/05/21 08:46:22;;;;;;;8.15;6.00;;;;;;;25.07;27.90;95397.03;4919753;29;20238;-79
2023/05/21 08:48:47;;;;;;;11.27;5.83;;;;;;;25.19;28.12;95396.72;4938843;29;20495;-79
2023/05/21 08:51:14;;;;;;;6.55;5.85;;;;;;;25.07;26.73;95403.31;4922667;29;20051;-80
2023/05/21 08:53:40;;;;;;;;;;;;;;;25.15;27.78;95404.63;4927415;29;20098;-79
2023/05/21 08:56:05;;;;;;;8.90;5.57;;;;;;;25.28;28.31;95402.41;4946042;29;19953;-80
2023/05/21 08:58:32;;;;;;;9.45;6.00;;;;;;;25.40;26.73;95397.47;4959515;29;20098;-80
2023/05/21 09:00:57;;;;;;;9.13;5.78;;;;;;;25.55;27.34;95402.03;4958512;28;20182;-80
2023/05/21 09:03:23;;;;;;;8.57;5.90;;;;;;;25.49;27.05;95397.69;4948969;28;20044;-80
2023/05/21 09:05:49;;;;;;;8.35;5.85;;;;;;;25.71;26.37;95404.69;4952601;29;20027;-79
2023/05/21 09:08:20;;;;;;;10.40;6.15;;;;;;;25.76;27.31;95403.84;4946230;29;20019;-80
2023/05/21 09:10:49;;;;;;;7.45;5.70;;;;;;;25.68;27.58;95400.59;4950644;29;20406;-80
2023/05/21 09:13:18;;;;;;;7.55;5.53;;;;;;;25.97;27.61;95410.78;4944125;29;20600;-80
2023/05/21 09:15:44;;;;;;;10.38;5.57;;;;;;;26.24;26.18;95406.78;4947228;28;20074;-80
2023/05/21 09:18:10;;;;;;;8.47;5.80;;;;;;;26.41;25.85;95408.28;4954677;28;20043;-80
2023/05/21 09:20:36;;;;;;;8.73;5.32;;;;;;;26.57;26.08;95413.63;4951775;29;20038;-80
2023/05/21 09:23:02;;;;;;;7.13;5.50;;;;;;;26.53;24.80;95399.72;4947547;29;20050;-79
2023/05/21 09:25:28;;;;;;;6.70;5.30;;;;;;;26.81;25.56;95412.91;4951188;29;20027;-79
2023/05/21 09:27:56;;;;;;;15.37;5.40;;;;;;;26.74;25.83;95408.56;4950715;29;20040;-79
2023/05/21 09:30:24;;;;;;;7.50;5.28;;;;;;;26.95;24.86;95408.34;4943219;29;20063;-77
2023/05/21 09:32:55;;;;;;;7.18;5.78;;;;;;;27.00;23.88;95400.13;4947700;29;20020;-78
2023/05/21 09:35:20;;;;;;;8.52;5.72;;;;;;;26.77;23.59;95401.72;4937235;29;20146;-78
2023/05/21 09:37:49;;;;;;;8.47;5.57;;;;;;;27.33;24.30;95401.41;4947297;29;20042;-78
2023/05/21 09:40:15;;;;;;;7.25;5.07;;;;;;;27.50;24.33;95404.44;4952041;29;20058;-78
2023/05/21 09:42:46;;;;;;;8.48;5.45;;;;;;;27.87;23.48;95406.75;4952420;29;20044;-78
2023/05/21 09:45:11;;;;;;;6.70;5.30;;;;;;;27.87;23.93;95404.81;4961929;28;20059;-78
2023/05/21 09:47:41;;;;;;;6.90;5.27;;;;;;;28.09;23.13;95395.19;4967127;29;20023;-79
2023/05/21 09:50:09;;;;;;;7.65;5.60;;;;;;;27.74;22.65;95398.16;4958984;29;20055;-79
2023/05/21 09:52:37;;;;;;;8.48;4.95;;;;;;;28.06;23.86;95395.78;4953427;29;20024;-79
2023/05/21 09:55:07;;;;;;;6.07;4.78;;;;;;;28.30;24.04;95405.03;4962343;29;20051;-80
2023/05/21 09:57:32;;;;;;;7.10;5.35;;;;;;;28.52;22.62;95410.66;4940114;29;20035;-79
2023/05/21 09:59:57;;;;;;;8.77;5.23;;;;;;;28.73;22.63;95401.31;4946194;29;20037;-80
2023/05/21 10:02:25;;;;;;;8.03;5.10;;;;;;;28.91;22.41;95400.41;4956961;29;20048;-79
2023/05/21 10:04:50;;;;;;;7.35;5.32;;;;;;;28.93;23.12;95400.13;4954791;29;20046;-79
2023/05/21 10:07:18;;;;;;;7.50;4.90;;;;;;;29.23;22.31;95397.09;4956974;29;20111;-80
2023/05/21 10:09:45;;;;;;;5.57;4.38;;;;;;;29.50;21.25;95393.50;4954018;29;20051;-79
2023/05/21 10:12:11;;;;;;;6.45;4.78;;;;;;;29.55;21.24;95390.69;4958321;29;20055;-80
2023/05/21 10:14:36;;;;;;;7.13;4.80;;;;;;;29.64;21.59;95384.47;4956734;29;20023;-80
2023/05/21 10:17:03;;;;;;;6.57;5.60;;;;;;;29.51;20.64;95392.41;4958511;29;20028;-80
2023/05/21 10:19:30;;;;;;;9.35;5.15;;;;;;;29.44;21.99;95384.59;4965562;29;20039;-81
2023/05/21 10:21:56;;;;;;;5.65;5.03;;;;;;;29.64;20.72;95378.97;4960165;29;20091;-80
2023/05/21 10:24:22;;;;;;;7.50;4.97;;;;;;;30.27;21.21;95378.38;4970540;28;20027;-81
2023/05/21 10:26:47;;;;;;;6.15;4.72;;;;;;;30.28;21.83;95380.81;4960697;29;20035;-81
2023/05/21 10:29:13;;;;;;;7.10;5.33;;;;;;;30.37;20.51;95372.66;4959198;23;20062;-95
2023/05/21 10:31:39;;;;;;;8.20;5.27;;;;;;;30.61;20.64;95376.16;4914245;28;20102;-94
2023/05/21 10:34:05;;;;;;;7.28;5.40;;;;;;;30.50;20.14;95376.44;4913944;29;20554;-94
2023/05/21 10:36:30;;;;;;;7.10;5.20;;;;;;;31.04;19.72;95366.53;4925957;29;20034;-95
2023/05/21 10:38:56;;;;;;;6.17;4.50;;;;;;;31.00;21.27;95373.78;4938470;29;20043;-95
2023/05/21 10:41:22;;;;;;;6.55;4.93;;;;;;;31.14;19.41;95369.03;4944462;28;20529;-95
2023/05/21 10:44:06;;;;;;;9.57;4.57;;;;;;;31.32;19.89;95380.88;4948054;29;20537;-94
2023/05/21 10:46:55;;;;;;;6.80;5.30;;;;;;;31.01;19.44;95373.47;4954968;28;20039;-95
2023/05/21 10:49:42;;;;;;;6.50;5.03;;;;;;;30.97;19.52;95372.50;4937738;29;20035;-93
2023/05/21 10:52:38;;;;;;;6.07;5.18;;;;;;;30.50;18.94;95356.41;4958054;28;20055;-94
2023/05/21 10:55:10;;;;;;;7.00;4.85;;;;;;;30.64;20.23;95370.03;4969864;28;20514;-94
2023/05/21 10:57:44;;;;;;;5.65;4.75;;;;;;;30.67;18.86;95361.22;4939439;28;20035;-94
2023/05/21 11:00:11;;;;;;;5.97;4.72;;;;;;;30.73;20.52;95372.88;4963257;28;20023;-95
2023/05/21 11:02:36;;;;;;;7.45;4.65;;;;;;;30.54;19.47;95362.88;4929686;29;20082;-93
2023/05/21 11:05:03;;;;;;;5.67;4.40;;;;;;;30.39;19.51;95359.44;4911478;29;20036;-95
2023/05/21 11:07:57;;;;;;;4.97;4.20;;;;;;;30.39;20.23;95366.84;4911994;29;20039;-93
2023/05/21 11:10:39;;;;;;;7.63;4.60;;;;;;;30.34;20.58;95356.78;4914597;29;20047;-94
2023/05/21 11:13:15;;;;;;;5.38;4.50;;;;;;;30.34;20.27;95362.28;4904163;29;20086;-93
2023/05/21 11:15:58;;;;;;;5.43;4.00;;;;;;;30.36;20.56;95361.97;4918299;29;20042;-94
2023/05/21 11:18:36;;;;;;;7.13;4.50;;;;;;;30.40;20.40;95360.22;4928945;29;20534;-94
2023/05/21 11:21:13;;;;;;;6.50;4.60;;;;;;;30.26;18.82;95352.06;4944561;29;20035;-93
2023/05/21 11:24:02;;;;;;;6.10;4.82;;;;;;;30.24;20.65;95348.84;4941722;28;20071;-94